sensor_id;sensor_type;location;lat;lon;timestamp;P1;durP1;ratioP1;P2;durP2;ratioP2
5153;SDS011;2595;53.584;10.084;2022-11-20T00:00:47;5.30;;;3.10;;
5153;SDS011;2595;53.584;10.084;2022-11-20T00:03:13;3.33;;;3.13;;
5153;SDS011;2595;53.584;10.084;2022-11-20T00:05:38;2.80;;;2.60;;
5153;SDS011;2595;53.584;10.084;2022-11-20T00:08:04;5.10;;;3.77;;
5153;SDS011;2595;53.584;10.084;2022-11-20T00:10:30;3.53;;;3.33;;
5153;SDS011;2595;53.584;10.084;2022-11-20T00:12:57;3.17;;;2.97;;
5153;SDS011;2595;53.584;10.084;2022-11-20T00:15:23;3.07;;;2.87;;
5153;SDS011;2595;53.584;10.084;2022-11-20T00:17:49;3.30;;;3.10;;
5153;SDS011;2595;53.584;10.084;2022-11-20T00:20:15;2.93;;;2.73;;
5153;SDS011;2595;53.584;10.084;2022-11-20T00:22:40;3.27;;;3.07;;
5153;SDS011;2595;53.584;10.084;2022-11-20T00:25:06;3.10;;;2.90;;
5153;SDS011;2595;53.584;10.084;2022-11-20T00:27:32;2.80;;;2.60;;
5153;SDS011;2595;53.584;10.084;2022-11-20T00:29:57;3.30;;;3.10;;
5153;SDS011;2595;53.584;10.084;2022-11-20T00:32:23;3.53;;;3.33;;
5153;SDS011;2595;53.584;10.084;2022-11-20T00:34:49;3.87;;;3.50;;
5153;SDS011;2595;53.584;10.084;2022-11-20T00:37:14;3.23;;;3.13;;
5153;SDS011;2595;53.584;10.084;2022-11-20T00:39:40;2.90;;;2.80;;
5153;SDS011;2595;53.584;10.084;2022-11-20T00:42:06;3.43;;;3.13;;
5153;SDS011;2595;53.584;10.084;2022-11-20T00:44:31;3.77;;;3.57;;
5153;SDS011;2595;53.584;10.084;2022-11-20T00:46:57;3.47;;;3.27;;
5153;SDS011;2595;53.584;10.084;2022-11-20T00:49:22;2.90;;;2.70;;
5153;SDS011;2595;53.584;10.084;2022-11-20T00:51:48;3.00;;;2.80;;
5153;SDS011;2595;53.584;10.084;2022-11-20T00:54:13;3.00;;;2.80;;
5153;SDS011;2595;53.584;10.084;2022-11-20T00:56:39;3.40;;;3.13;;
5153;SDS011;2595;53.584;10.084;2022-11-20T00:59:05;3.20;;;3.00;;
5153;SDS011;2595;53.584;10.084;2022-11-20T01:01:30;3.40;;;3.20;;
5153;SDS011;2595;53.584;10.084;2022-11-20T01:03:57;3.17;;;2.87;;
5153;SDS011;2595;53.584;10.084;2022-11-20T01:06:26;5.77;;;3.87;;
5153;SDS011;2595;53.584;10.084;2022-11-20T01:08:55;2.57;;;2.47;;
5153;SDS011;2595;53.584;10.084;2022-11-20T01:11:26;2.93;;;2.70;;
5153;SDS011;2595;53.584;10.084;2022-11-20T01:13:53;3.27;;;3.07;;
5153;SDS011;2595;53.584;10.084;2022-11-20T01:16:22;3.33;;;3.03;;
5153;SDS011;2595;53.584;10.084;2022-11-20T01:18:51;3.30;;;3.10;;
5153;SDS011;2595;53.584;10.084;2022-11-20T01:21:23;3.10;;;2.90;;
5153;SDS011;2595;53.584;10.084;2022-11-20T01:23:56;3.50;;;3.20;;
5153;SDS011;2595;53.584;10.084;2022-11-20T01:26:23;3.20;;;3.00;;
5153;SDS011;2595;53.584;10.084;2022-11-20T01:28:50;3.40;;;3.20;;
5153;SDS011;2595;53.584;10.084;2022-11-20T01:33:45;3.23;;;2.90;;
5153;SDS011;2595;53.584;10.084;2022-11-20T01:36:12;3.17;;;2.97;;
5153;SDS011;2595;53.584;10.084;2022-11-20T01:38:38;2.97;;;2.77;;
5153;SDS011;2595;53.584;10.084;2022-11-20T01:41:04;3.23;;;2.93;;
5153;SDS011;2595;53.584;10.084;2022-11-20T01:43:31;3.83;;;3.60;;
5153;SDS011;2595;53.584;10.084;2022-11-20T01:48:32;3.03;;;2.50;;
5153;SDS011;2595;53.584;10.084;2022-11-20T01:51:03;3.67;;;3.47;;
5153;SDS011;2595;53.584;10.084;2022-11-20T01:53:30;3.40;;;3.20;;
5153;SDS011;2595;53.584;10.084;2022-11-20T01:55:58;3.47;;;3.17;;
5153;SDS011;2595;53.584;10.084;2022-11-20T01:58:27;3.27;;;3.07;;
5153;SDS011;2595;53.584;10.084;2022-11-20T02:00:57;3.90;;;3.70;;
5153;SDS011;2595;53.584;10.084;2022-11-20T02:03:23;3.30;;;3.00;;
5153;SDS011;2595;53.584;10.084;2022-11-20T02:08:35;3.20;;;3.10;;
5153;SDS011;2595;53.584;10.084;2022-11-20T02:11:02;3.57;;;3.37;;
5153;SDS011;2595;53.584;10.084;2022-11-20T02:13:28;4.67;;;3.77;;
5153;SDS011;2595;53.584;10.084;2022-11-20T02:16:31;8.67;;;3.90;;
5153;SDS011;2595;53.584;10.084;2022-11-20T02:19:06;5.27;;;2.90;;
5153;SDS011;2595;53.584;10.084;2022-11-20T02:24:19;3.63;;;3.40;;
5153;SDS011;2595;53.584;10.084;2022-11-20T02:27:02;6.63;;;3.60;;
5153;SDS011;2595;53.584;10.084;2022-11-20T02:29:36;3.50;;;3.30;;
5153;SDS011;2595;53.584;10.084;2022-11-20T02:32:21;4.53;;;4.27;;
5153;SDS011;2595;53.584;10.084;2022-11-20T02:34:51;3.43;;;3.23;;
5153;SDS011;2595;53.584;10.084;2022-11-20T02:37:17;4.53;;;4.33;;
5153;SDS011;2595;53.584;10.084;2022-11-20T02:39:44;4.47;;;4.17;;
5153;SDS011;2595;53.584;10.084;2022-11-20T02:42:12;3.60;;;3.40;;
5153;SDS011;2595;53.584;10.084;2022-11-20T02:44:37;2.90;;;2.70;;
5153;SDS011;2595;53.584;10.084;2022-11-20T02:47:03;3.10;;;2.80;;
5153;SDS011;2595;53.584;10.084;2022-11-20T02:49:29;3.90;;;3.57;;
5153;SDS011;2595;53.584;10.084;2022-11-20T02:51:54;4.57;;;4.27;;
5153;SDS011;2595;53.584;10.084;2022-11-20T02:54:20;2.50;;;2.40;;
5153;SDS011;2595;53.584;10.084;2022-11-20T02:56:46;4.03;;;3.63;;
5153;SDS011;2595;53.584;10.084;2022-11-20T02:59:11;3.20;;;3.00;;
5153;SDS011;2595;53.584;10.084;2022-11-20T03:01:37;3.63;;;3.33;;
5153;SDS011;2595;53.584;10.084;2022-11-20T03:04:02;3.77;;;3.40;;
5153;SDS011;2595;53.584;10.084;2022-11-20T03:06:28;3.17;;;2.97;;
5153;SDS011;2595;53.584;10.084;2022-11-20T03:08:54;3.17;;;2.90;;
5153;SDS011;2595;53.584;10.084;2022-11-20T03:11:19;3.20;;;3.00;;
5153;SDS011;2595;53.584;10.084;2022-11-20T03:13:45;3.10;;;2.90;;
5153;SDS011;2595;53.584;10.084;2022-11-20T03:16:15;3.63;;;3.43;;
5153;SDS011;2595;53.584;10.084;2022-11-20T03:18:42;7.30;;;3.60;;
5153;SDS011;2595;53.584;10.084;2022-11-20T03:21:09;3.80;;;3.60;;
5153;SDS011;2595;53.584;10.084;2022-11-20T03:23:36;3.40;;;3.10;;
5153;SDS011;2595;53.584;10.084;2022-11-20T03:26:09;3.47;;;3.23;;
5153;SDS011;2595;53.584;10.084;2022-11-20T03:28:49;3.73;;;3.30;;
5153;SDS011;2595;53.584;10.084;2022-11-20T03:31:17;3.40;;;2.80;;
5153;SDS011;2595;53.584;10.084;2022-11-20T03:33:46;3.87;;;3.57;;
5153;SDS011;2595;53.584;10.084;2022-11-20T03:36:12;3.80;;;3.50;;
5153;SDS011;2595;53.584;10.084;2022-11-20T03:38:40;7.83;;;3.23;;
5153;SDS011;2595;53.584;10.084;2022-11-20T03:41:10;4.40;;;3.67;;
5153;SDS011;2595;53.584;10.084;2022-11-20T03:43:37;3.50;;;3.10;;
5153;SDS011;2595;53.584;10.084;2022-11-20T03:46:03;2.97;;;2.80;;
5153;SDS011;2595;53.584;10.084;2022-11-20T03:48:29;4.00;;;3.27;;
5153;SDS011;2595;53.584;10.084;2022-11-20T03:51:08;5.43;;;3.00;;
5153;SDS011;2595;53.584;10.084;2022-11-20T03:53:37;3.60;;;3.40;;
5153;SDS011;2595;53.584;10.084;2022-11-20T03:56:03;3.90;;;3.60;;
5153;SDS011;2595;53.584;10.084;2022-11-20T03:58:29;2.93;;;2.73;;
5153;SDS011;2595;53.584;10.084;2022-11-20T04:00:55;3.37;;;3.13;;
5153;SDS011;2595;53.584;10.084;2022-11-20T04:03:20;3.40;;;3.20;;
5153;SDS011;2595;53.584;10.084;2022-11-20T04:05:46;4.13;;;3.60;;
5153;SDS011;2595;53.584;10.084;2022-11-20T04:08:12;3.87;;;3.40;;
5153;SDS011;2595;53.584;10.084;2022-11-20T04:10:37;3.40;;;3.10;;
5153;SDS011;2595;53.584;10.084;2022-11-20T04:13:03;3.53;;;3.33;;
5153;SDS011;2595;53.584;10.084;2022-11-20T04:15:28;4.30;;;3.93;;
5153;SDS011;2595;53.584;10.084;2022-11-20T04:17:54;3.10;;;2.90;;
5153;SDS011;2595;53.584;10.084;2022-11-20T04:20:20;3.07;;;2.87;;
5153;SDS011;2595;53.584;10.084;2022-11-20T04:22:45;3.77;;;3.47;;
5153;SDS011;2595;53.584;10.084;2022-11-20T04:25:11;3.40;;;3.20;;
5153;SDS011;2595;53.584;10.084;2022-11-20T04:27:36;5.77;;;2.63;;
5153;SDS011;2595;53.584;10.084;2022-11-20T04:30:02;3.90;;;2.90;;
5153;SDS011;2595;53.584;10.084;2022-11-20T04:32:28;3.00;;;2.80;;
5153;SDS011;2595;53.584;10.084;2022-11-20T04:34:53;4.53;;;2.83;;
5153;SDS011;2595;53.584;10.084;2022-11-20T04:37:19;3.40;;;3.20;;
5153;SDS011;2595;53.584;10.084;2022-11-20T04:39:45;3.37;;;3.10;;
5153;SDS011;2595;53.584;10.084;2022-11-20T04:42:10;3.63;;;3.40;;
5153;SDS011;2595;53.584;10.084;2022-11-20T04:44:54;3.57;;;3.37;;
5153;SDS011;2595;53.584;10.084;2022-11-20T04:47:20;3.37;;;3.17;;
5153;SDS011;2595;53.584;10.084;2022-11-20T04:49:46;3.93;;;3.63;;
5153;SDS011;2595;53.584;10.084;2022-11-20T04:52:12;3.20;;;3.07;;
5153;SDS011;2595;53.584;10.084;2022-11-20T04:54:38;3.10;;;2.90;;
5153;SDS011;2595;53.584;10.084;2022-11-20T04:57:03;3.57;;;3.37;;
5153;SDS011;2595;53.584;10.084;2022-11-20T04:59:29;3.90;;;3.70;;
5153;SDS011;2595;53.584;10.084;2022-11-20T05:01:54;3.20;;;3.00;;
5153;SDS011;2595;53.584;10.084;2022-11-20T05:04:20;3.90;;;3.70;;
5153;SDS011;2595;53.584;10.084;2022-11-20T05:06:46;3.27;;;3.07;;
5153;SDS011;2595;53.584;10.084;2022-11-20T05:09:12;3.70;;;3.50;;
5153;SDS011;2595;53.584;10.084;2022-11-20T05:11:38;3.53;;;3.33;;
5153;SDS011;2595;53.584;10.084;2022-11-20T05:14:03;3.93;;;3.73;;
5153;SDS011;2595;53.584;10.084;2022-11-20T05:16:29;4.87;;;4.53;;
5153;SDS011;2595;53.584;10.084;2022-11-20T05:18:55;3.50;;;3.30;;
5153;SDS011;2595;53.584;10.084;2022-11-20T05:21:20;3.73;;;3.43;;
5153;SDS011;2595;53.584;10.084;2022-11-20T05:23:46;4.33;;;4.10;;
5153;SDS011;2595;53.584;10.084;2022-11-20T05:26:16;3.73;;;3.33;;
5153;SDS011;2595;53.584;10.084;2022-11-20T05:28:44;5.63;;;3.73;;
5153;SDS011;2595;53.584;10.084;2022-11-20T05:31:28;3.43;;;3.23;;
5153;SDS011;2595;53.584;10.084;2022-11-20T05:33:54;3.77;;;3.57;;
5153;SDS011;2595;53.584;10.084;2022-11-20T05:36:20;3.70;;;3.50;;
5153;SDS011;2595;53.584;10.084;2022-11-20T05:38:47;3.60;;;3.30;;
5153;SDS011;2595;53.584;10.084;2022-11-20T05:41:14;3.93;;;3.60;;
5153;SDS011;2595;53.584;10.084;2022-11-20T05:43:42;4.30;;;4.10;;
5153;SDS011;2595;53.584;10.084;2022-11-20T05:46:09;3.37;;;3.10;;
5153;SDS011;2595;53.584;10.084;2022-11-20T05:48:37;3.37;;;3.20;;
5153;SDS011;2595;53.584;10.084;2022-11-20T05:51:05;3.90;;;3.53;;
5153;SDS011;2595;53.584;10.084;2022-11-20T05:53:33;4.00;;;3.80;;
5153;SDS011;2595;53.584;10.084;2022-11-20T05:56:00;4.07;;;3.87;;
5153;SDS011;2595;53.584;10.084;2022-11-20T05:58:31;4.30;;;4.00;;
5153;SDS011;2595;53.584;10.084;2022-11-20T06:03:52;4.07;;;3.87;;
5153;SDS011;2595;53.584;10.084;2022-11-20T06:06:19;3.63;;;3.43;;
5153;SDS011;2595;53.584;10.084;2022-11-20T06:08:45;4.10;;;3.80;;
5153;SDS011;2595;53.584;10.084;2022-11-20T06:11:11;3.80;;;3.60;;
5153;SDS011;2595;53.584;10.084;2022-11-20T06:13:38;3.80;;;3.60;;
5153;SDS011;2595;53.584;10.084;2022-11-20T06:16:04;4.23;;;3.77;;
5153;SDS011;2595;53.584;10.084;2022-11-20T06:18:30;4.30;;;3.90;;
5153;SDS011;2595;53.584;10.084;2022-11-20T06:20:59;4.67;;;4.37;;
5153;SDS011;2595;53.584;10.084;2022-11-20T06:23:27;4.43;;;3.90;;
5153;SDS011;2595;53.584;10.084;2022-11-20T06:25:54;5.33;;;4.93;;
5153;SDS011;2595;53.584;10.084;2022-11-20T06:28:19;5.30;;;4.90;;
5153;SDS011;2595;53.584;10.084;2022-11-20T06:30:45;6.37;;;5.97;;
5153;SDS011;2595;53.584;10.084;2022-11-20T06:33:11;5.50;;;5.10;;
5153;SDS011;2595;53.584;10.084;2022-11-20T06:35:36;12.87;;;5.00;;
5153;SDS011;2595;53.584;10.084;2022-11-20T06:38:02;5.27;;;4.97;;
5153;SDS011;2595;53.584;10.084;2022-11-20T06:40:27;5.60;;;5.30;;
5153;SDS011;2595;53.584;10.084;2022-11-20T06:42:53;5.93;;;5.53;;
5153;SDS011;2595;53.584;10.084;2022-11-20T06:45:20;6.87;;;6.47;;
5153;SDS011;2595;53.584;10.084;2022-11-20T06:47:46;6.30;;;5.90;;
5153;SDS011;2595;53.584;10.084;2022-11-20T06:50:11;7.80;;;7.20;;
5153;SDS011;2595;53.584;10.084;2022-11-20T06:52:37;7.27;;;6.60;;
5153;SDS011;2595;53.584;10.084;2022-11-20T06:55:03;9.20;;;8.40;;
5153;SDS011;2595;53.584;10.084;2022-11-20T06:57:29;7.13;;;6.53;;
5153;SDS011;2595;53.584;10.084;2022-11-20T06:59:54;7.73;;;7.23;;
5153;SDS011;2595;53.584;10.084;2022-11-20T07:02:20;7.57;;;7.07;;
5153;SDS011;2595;53.584;10.084;2022-11-20T07:04:46;8.90;;;6.07;;
5153;SDS011;2595;53.584;10.084;2022-11-20T07:07:11;6.43;;;5.93;;
5153;SDS011;2595;53.584;10.084;2022-11-20T07:09:37;7.90;;;7.20;;
5153;SDS011;2595;53.584;10.084;2022-11-20T07:12:02;5.87;;;5.57;;
5153;SDS011;2595;53.584;10.084;2022-11-20T07:14:28;5.50;;;5.20;;
5153;SDS011;2595;53.584;10.084;2022-11-20T07:16:54;5.40;;;5.10;;
5153;SDS011;2595;53.584;10.084;2022-11-20T07:19:19;5.40;;;5.00;;
5153;SDS011;2595;53.584;10.084;2022-11-20T07:21:45;5.97;;;5.57;;
5153;SDS011;2595;53.584;10.084;2022-11-20T07:24:11;6.30;;;5.90;;
5153;SDS011;2595;53.584;10.084;2022-11-20T07:26:36;4.33;;;4.13;;
5153;SDS011;2595;53.584;10.084;2022-11-20T07:29:02;7.30;;;5.27;;
5153;SDS011;2595;53.584;10.084;2022-11-20T07:31:28;5.63;;;4.93;;
5153;SDS011;2595;53.584;10.084;2022-11-20T07:33:54;5.30;;;4.90;;
5153;SDS011;2595;53.584;10.084;2022-11-20T07:36:19;5.53;;;5.13;;
5153;SDS011;2595;53.584;10.084;2022-11-20T07:38:45;5.03;;;4.63;;
5153;SDS011;2595;53.584;10.084;2022-11-20T07:41:10;4.93;;;4.20;;
5153;SDS011;2595;53.584;10.084;2022-11-20T07:43:36;4.70;;;4.40;;
5153;SDS011;2595;53.584;10.084;2022-11-20T07:46:01;4.77;;;4.37;;
5153;SDS011;2595;53.584;10.084;2022-11-20T07:48:28;5.20;;;4.90;;
5153;SDS011;2595;53.584;10.084;2022-11-20T07:50:55;4.43;;;4.20;;
5153;SDS011;2595;53.584;10.084;2022-11-20T07:53:21;4.43;;;4.23;;
5153;SDS011;2595;53.584;10.084;2022-11-20T07:55:47;4.20;;;4.00;;
5153;SDS011;2595;53.584;10.084;2022-11-20T07:58:13;4.37;;;4.07;;
5153;SDS011;2595;53.584;10.084;2022-11-20T08:00:39;6.17;;;4.43;;
5153;SDS011;2595;53.584;10.084;2022-11-20T08:03:06;5.37;;;5.07;;
5153;SDS011;2595;53.584;10.084;2022-11-20T08:05:32;5.13;;;4.73;;
5153;SDS011;2595;53.584;10.084;2022-11-20T08:07:58;4.70;;;4.40;;
5153;SDS011;2595;53.584;10.084;2022-11-20T08:10:23;4.43;;;4.13;;
5153;SDS011;2595;53.584;10.084;2022-11-20T08:12:50;4.67;;;4.37;;
5153;SDS011;2595;53.584;10.084;2022-11-20T08:15:35;4.60;;;4.40;;
5153;SDS011;2595;53.584;10.084;2022-11-20T08:20:29;5.33;;;5.03;;
5153;SDS011;2595;53.584;10.084;2022-11-20T08:23:01;4.37;;;4.17;;
5153;SDS011;2595;53.584;10.084;2022-11-20T08:25:29;4.30;;;4.10;;
5153;SDS011;2595;53.584;10.084;2022-11-20T08:27:57;3.90;;;3.70;;
5153;SDS011;2595;53.584;10.084;2022-11-20T08:30:30;3.90;;;3.70;;
5153;SDS011;2595;53.584;10.084;2022-11-20T08:33:00;4.07;;;3.87;;
5153;SDS011;2595;53.584;10.084;2022-11-20T08:35:27;4.10;;;3.80;;
5153;SDS011;2595;53.584;10.084;2022-11-20T08:37:53;4.07;;;3.77;;
5153;SDS011;2595;53.584;10.084;2022-11-20T08:40:19;4.33;;;3.93;;
5153;SDS011;2595;53.584;10.084;2022-11-20T08:42:47;3.67;;;3.47;;
5153;SDS011;2595;53.584;10.084;2022-11-20T08:45:14;3.50;;;3.20;;
5153;SDS011;2595;53.584;10.084;2022-11-20T08:47:40;3.83;;;3.63;;
5153;SDS011;2595;53.584;10.084;2022-11-20T08:50:07;3.60;;;3.40;;
5153;SDS011;2595;53.584;10.084;2022-11-20T08:52:34;3.60;;;3.40;;
5153;SDS011;2595;53.584;10.084;2022-11-20T08:54:59;3.30;;;3.10;;
5153;SDS011;2595;53.584;10.084;2022-11-20T08:57:25;3.07;;;2.90;;
5153;SDS011;2595;53.584;10.084;2022-11-20T08:59:50;3.77;;;3.57;;
5153;SDS011;2595;53.584;10.084;2022-11-20T09:02:16;3.10;;;2.90;;
5153;SDS011;2595;53.584;10.084;2022-11-20T09:04:41;4.13;;;3.90;;
5153;SDS011;2595;53.584;10.084;2022-11-20T09:07:07;3.50;;;3.30;;
5153;SDS011;2595;53.584;10.084;2022-11-20T09:09:33;3.47;;;3.17;;
5153;SDS011;2595;53.584;10.084;2022-11-20T09:11:58;4.03;;;3.83;;
5153;SDS011;2595;53.584;10.084;2022-11-20T09:14:24;3.40;;;3.20;;
5153;SDS011;2595;53.584;10.084;2022-11-20T09:16:54;2.83;;;2.73;;
5153;SDS011;2595;53.584;10.084;2022-11-20T09:19:20;3.10;;;2.90;;
5153;SDS011;2595;53.584;10.084;2022-11-20T09:21:46;2.80;;;2.70;;
5153;SDS011;2595;53.584;10.084;2022-11-20T09:24:11;2.70;;;2.60;;
5153;SDS011;2595;53.584;10.084;2022-11-20T09:26:37;3.57;;;3.37;;
5153;SDS011;2595;53.584;10.084;2022-11-20T09:29:02;3.10;;;3.00;;
5153;SDS011;2595;53.584;10.084;2022-11-20T09:31:28;3.07;;;2.87;;
5153;SDS011;2595;53.584;10.084;2022-11-20T09:33:53;3.80;;;3.60;;
5153;SDS011;2595;53.584;10.084;2022-11-20T09:36:19;3.03;;;2.90;;
5153;SDS011;2595;53.584;10.084;2022-11-20T09:38:45;3.43;;;3.23;;
5153;SDS011;2595;53.584;10.084;2022-11-20T09:41:19;3.20;;;3.10;;
5153;SDS011;2595;53.584;10.084;2022-11-20T09:55:33;4.33;;;4.03;;
5153;SDS011;2595;53.584;10.084;2022-11-20T09:58:00;4.30;;;4.10;;
5153;SDS011;2595;53.584;10.084;2022-11-20T10:00:30;4.10;;;3.90;;
5153;SDS011;2595;53.584;10.084;2022-11-20T10:03:06;3.33;;;3.13;;
5153;SDS011;2595;53.584;10.084;2022-11-20T10:08:25;3.73;;;3.53;;
5153;SDS011;2595;53.584;10.084;2022-11-20T10:11:05;3.10;;;2.90;;
5153;SDS011;2595;53.584;10.084;2022-11-20T10:17:03;3.20;;;3.00;;
5153;SDS011;2595;53.584;10.084;2022-11-20T10:25:18;3.97;;;3.77;;
5153;SDS011;2595;53.584;10.084;2022-11-20T10:30:42;4.50;;;4.30;;
5153;SDS011;2595;53.584;10.084;2022-11-20T10:33:15;4.90;;;3.60;;
5153;SDS011;2595;53.584;10.084;2022-11-20T10:35:45;4.60;;;4.40;;
5153;SDS011;2595;53.584;10.084;2022-11-20T10:38:21;3.67;;;3.27;;
5153;SDS011;2595;53.584;10.084;2022-11-20T10:40:52;3.70;;;3.40;;
5153;SDS011;2595;53.584;10.084;2022-11-20T10:43:44;3.60;;;3.37;;
5153;SDS011;2595;53.584;10.084;2022-11-20T10:46:15;3.63;;;3.40;;
5153;SDS011;2595;53.584;10.084;2022-11-20T10:48:44;3.63;;;3.43;;
5153;SDS011;2595;53.584;10.084;2022-11-20T11:02:19;3.40;;;3.20;;
5153;SDS011;2595;53.584;10.084;2022-11-20T11:04:47;4.47;;;4.27;;
5153;SDS011;2595;53.584;10.084;2022-11-20T11:07:27;3.50;;;3.30;;
5153;SDS011;2595;53.584;10.084;2022-11-20T11:12:44;3.80;;;3.60;;
5153;SDS011;2595;53.584;10.084;2022-11-20T11:15:25;2.80;;;2.70;;
5153;SDS011;2595;53.584;10.084;2022-11-20T11:17:55;3.20;;;3.00;;
5153;SDS011;2595;53.584;10.084;2022-11-20T11:20:22;3.20;;;3.10;;
5153;SDS011;2595;53.584;10.084;2022-11-20T11:22:54;3.53;;;3.33;;
5153;SDS011;2595;53.584;10.084;2022-11-20T11:25:23;3.50;;;3.30;;
5153;SDS011;2595;53.584;10.084;2022-11-20T11:28:01;3.90;;;3.53;;
5153;SDS011;2595;53.584;10.084;2022-11-20T11:30:29;3.33;;;3.13;;
5153;SDS011;2595;53.584;10.084;2022-11-20T11:33:06;3.30;;;3.10;;
5153;SDS011;2595;53.584;10.084;2022-11-20T11:35:38;3.03;;;2.83;;
5153;SDS011;2595;53.584;10.084;2022-11-20T11:38:12;2.80;;;2.70;;
5153;SDS011;2595;53.584;10.084;2022-11-20T11:40:41;3.30;;;3.00;;
5153;SDS011;2595;53.584;10.084;2022-11-20T11:43:16;3.70;;;3.50;;
5153;SDS011;2595;53.584;10.084;2022-11-20T11:46:05;2.73;;;2.63;;
5153;SDS011;2595;53.584;10.084;2022-11-20T11:48:56;2.63;;;2.40;;
5153;SDS011;2595;53.584;10.084;2022-11-20T11:51:54;2.97;;;2.73;;
5153;SDS011;2595;53.584;10.084;2022-11-20T11:54:15;2.60;;;2.40;;
5153;SDS011;2595;53.584;10.084;2022-11-20T11:56:44;2.73;;;2.63;;
5153;SDS011;2595;53.584;10.084;2022-11-20T11:59:12;1.53;;;1.43;;
5153;SDS011;2595;53.584;10.084;2022-11-20T12:01:52;2.90;;;2.80;;
5153;SDS011;2595;53.584;10.084;2022-11-20T12:07:13;2.23;;;2.13;;
5153;SDS011;2595;53.584;10.084;2022-11-20T12:09:46;2.60;;;2.40;;
5153;SDS011;2595;53.584;10.084;2022-11-20T12:12:20;2.50;;;2.40;;
5153;SDS011;2595;53.584;10.084;2022-11-20T12:14:52;2.40;;;2.30;;
5153;SDS011;2595;53.584;10.084;2022-11-20T12:17:20;2.23;;;2.13;;
5153;SDS011;2595;53.584;10.084;2022-11-20T12:19:46;2.87;;;2.77;;
5153;SDS011;2595;53.584;10.084;2022-11-20T12:27:18;3.20;;;3.00;;
5153;SDS011;2595;53.584;10.084;2022-11-20T12:29:53;3.33;;;2.40;;
5153;SDS011;2595;53.584;10.084;2022-11-20T12:41:11;2.33;;;2.23;;
5153;SDS011;2595;53.584;10.084;2022-11-20T12:44:23;2.70;;;2.60;;
5153;SDS011;2595;53.584;10.084;2022-11-20T13:06:56;3.00;;;2.90;;
5153;SDS011;2595;53.584;10.084;2022-11-20T13:09:22;2.70;;;2.60;;
5153;SDS011;2595;53.584;10.084;2022-11-20T13:12:09;2.97;;;2.87;;
5153;SDS011;2595;53.584;10.084;2022-11-20T13:14:42;2.87;;;2.70;;
5153;SDS011;2595;53.584;10.084;2022-11-20T13:17:13;2.70;;;2.60;;
5153;SDS011;2595;53.584;10.084;2022-11-20T13:19:54;2.80;;;2.60;;
5153;SDS011;2595;53.584;10.084;2022-11-20T13:22:27;2.73;;;2.60;;
5153;SDS011;2595;53.584;10.084;2022-11-20T13:27:59;2.70;;;2.60;;
5153;SDS011;2595;53.584;10.084;2022-11-20T13:30:28;3.57;;;3.27;;
5153;SDS011;2595;53.584;10.084;2022-11-20T13:33:00;3.17;;;2.97;;
5153;SDS011;2595;53.584;10.084;2022-11-20T13:35:42;3.07;;;2.87;;
5153;SDS011;2595;53.584;10.084;2022-11-20T13:40:36;2.80;;;2.53;;
5153;SDS011;2595;53.584;10.084;2022-11-20T13:43:08;3.23;;;3.13;;
5153;SDS011;2595;53.584;10.084;2022-11-20T13:45:41;2.50;;;2.40;;
5153;SDS011;2595;53.584;10.084;2022-11-20T13:48:19;3.17;;;2.97;;
5153;SDS011;2595;53.584;10.084;2022-11-20T13:58:35;2.90;;;2.80;;
5153;SDS011;2595;53.584;10.084;2022-11-20T14:01:24;2.60;;;2.50;;
5153;SDS011;2595;53.584;10.084;2022-11-20T14:03:54;2.37;;;2.27;;
5153;SDS011;2595;53.584;10.084;2022-11-20T14:06:25;4.60;;;2.33;;
5153;SDS011;2595;53.584;10.084;2022-11-20T14:08:54;2.60;;;2.50;;
5153;SDS011;2595;53.584;10.084;2022-11-20T14:11:21;2.40;;;2.30;;
5153;SDS011;2595;53.584;10.084;2022-11-20T14:16:38;3.00;;;2.90;;
5153;SDS011;2595;53.584;10.084;2022-11-20T14:19:21;2.83;;;2.73;;
5153;SDS011;2595;53.584;10.084;2022-11-20T14:22:07;2.40;;;2.30;;
5153;SDS011;2595;53.584;10.084;2022-11-20T14:24:40;3.10;;;2.90;;
5153;SDS011;2595;53.584;10.084;2022-11-20T14:27:11;3.03;;;2.70;;
5153;SDS011;2595;53.584;10.084;2022-11-20T14:29:42;3.20;;;3.00;;
5153;SDS011;2595;53.584;10.084;2022-11-20T14:32:10;2.80;;;2.60;;
5153;SDS011;2595;53.584;10.084;2022-11-20T14:34:39;3.53;;;3.33;;
5153;SDS011;2595;53.584;10.084;2022-11-20T14:37:10;3.60;;;3.40;;
5153;SDS011;2595;53.584;10.084;2022-11-20T14:39:41;3.03;;;2.83;;
5153;SDS011;2595;53.584;10.084;2022-11-20T14:42:27;3.57;;;3.37;;
5153;SDS011;2595;53.584;10.084;2022-11-20T14:44:57;3.47;;;3.27;;
5153;SDS011;2595;53.584;10.084;2022-11-20T14:47:25;3.13;;;2.93;;
5153;SDS011;2595;53.584;10.084;2022-11-20T14:49:54;3.00;;;2.90;;
5153;SDS011;2595;53.584;10.084;2022-11-20T14:52:21;2.67;;;2.57;;
5153;SDS011;2595;53.584;10.084;2022-11-20T14:54:49;3.00;;;2.80;;
5153;SDS011;2595;53.584;10.084;2022-11-20T14:57:26;2.67;;;2.53;;
5153;SDS011;2595;53.584;10.084;2022-11-20T15:02:49;2.67;;;2.57;;
5153;SDS011;2595;53.584;10.084;2022-11-20T15:05:17;3.40;;;3.10;;
5153;SDS011;2595;53.584;10.084;2022-11-20T15:07:46;2.93;;;2.73;;
5153;SDS011;2595;53.584;10.084;2022-11-20T15:10:21;2.67;;;2.57;;
5153;SDS011;2595;53.584;10.084;2022-11-20T15:12:52;3.27;;;3.07;;
5153;SDS011;2595;53.584;10.084;2022-11-20T15:15:25;3.50;;;3.30;;
5153;SDS011;2595;53.584;10.084;2022-11-20T15:18:00;3.70;;;3.40;;
5153;SDS011;2595;53.584;10.084;2022-11-20T15:20:27;2.87;;;2.67;;
5153;SDS011;2595;53.584;10.084;2022-11-20T15:22:55;3.10;;;2.90;;
5153;SDS011;2595;53.584;10.084;2022-11-20T15:25:21;2.97;;;2.77;;
5153;SDS011;2595;53.584;10.084;2022-11-20T15:27:48;3.10;;;2.90;;
5153;SDS011;2595;53.584;10.084;2022-11-20T15:30:21;3.33;;;3.20;;
5153;SDS011;2595;53.584;10.084;2022-11-20T15:32:47;3.40;;;3.20;;
5153;SDS011;2595;53.584;10.084;2022-11-20T15:35:13;4.40;;;4.00;;
5153;SDS011;2595;53.584;10.084;2022-11-20T15:37:40;4.13;;;3.83;;
5153;SDS011;2595;53.584;10.084;2022-11-20T15:40:06;3.50;;;3.30;;
5153;SDS011;2595;53.584;10.084;2022-11-20T15:42:33;4.60;;;4.10;;
5153;SDS011;2595;53.584;10.084;2022-11-20T15:44:59;4.30;;;4.00;;
5153;SDS011;2595;53.584;10.084;2022-11-20T15:47:29;3.87;;;3.20;;
5153;SDS011;2595;53.584;10.084;2022-11-20T15:49:58;3.50;;;3.27;;
5153;SDS011;2595;53.584;10.084;2022-11-20T15:52:24;3.90;;;3.63;;
5153;SDS011;2595;53.584;10.084;2022-11-20T15:54:49;3.80;;;3.60;;
5153;SDS011;2595;53.584;10.084;2022-11-20T15:57:15;3.70;;;3.50;;
5153;SDS011;2595;53.584;10.084;2022-11-20T15:59:41;3.30;;;3.10;;
5153;SDS011;2595;53.584;10.084;2022-11-20T16:02:10;4.13;;;3.83;;
5153;SDS011;2595;53.584;10.084;2022-11-20T16:04:37;3.30;;;3.10;;
5153;SDS011;2595;53.584;10.084;2022-11-20T16:07:03;3.50;;;3.30;;
5153;SDS011;2595;53.584;10.084;2022-11-20T16:09:28;3.80;;;3.50;;
5153;SDS011;2595;53.584;10.084;2022-11-20T16:11:54;4.03;;;3.70;;
5153;SDS011;2595;53.584;10.084;2022-11-20T16:14:20;4.27;;;3.97;;
5153;SDS011;2595;53.584;10.084;2022-11-20T16:17:04;4.00;;;3.80;;
5153;SDS011;2595;53.584;10.084;2022-11-20T16:19:29;3.80;;;3.60;;
5153;SDS011;2595;53.584;10.084;2022-11-20T16:21:56;4.33;;;4.13;;
5153;SDS011;2595;53.584;10.084;2022-11-20T16:24:22;4.60;;;4.40;;
5153;SDS011;2595;53.584;10.084;2022-11-20T16:26:48;4.40;;;4.20;;
5153;SDS011;2595;53.584;10.084;2022-11-20T16:29:13;4.60;;;4.20;;
5153;SDS011;2595;53.584;10.084;2022-11-20T16:31:40;4.70;;;4.40;;
5153;SDS011;2595;53.584;10.084;2022-11-20T16:34:06;4.70;;;4.40;;
5153;SDS011;2595;53.584;10.084;2022-11-20T16:36:32;3.97;;;3.77;;
5153;SDS011;2595;53.584;10.084;2022-11-20T16:38:59;3.47;;;3.20;;
5153;SDS011;2595;53.584;10.084;2022-11-20T16:41:27;3.87;;;3.67;;
5153;SDS011;2595;53.584;10.084;2022-11-20T16:43:56;3.87;;;3.67;;
5153;SDS011;2595;53.584;10.084;2022-11-20T16:46:23;3.83;;;3.63;;
5153;SDS011;2595;53.584;10.084;2022-11-20T16:48:54;3.80;;;2.97;;
5153;SDS011;2595;53.584;10.084;2022-11-20T16:51:31;3.40;;;3.20;;
5153;SDS011;2595;53.584;10.084;2022-11-20T16:54:03;3.77;;;3.57;;
5153;SDS011;2595;53.584;10.084;2022-11-20T16:56:30;3.80;;;3.60;;
5153;SDS011;2595;53.584;10.084;2022-11-20T16:58:56;4.50;;;4.30;;
5153;SDS011;2595;53.584;10.084;2022-11-20T17:01:24;5.57;;;5.17;;